Time;durP1;ratioP1;P1;durP2;ratioP2;P2;SDS_P1;SDS_P2;PMS_P1;PMS_P2;Temp;Humidity;BMP_temperature;BMP_pressure;BME280_temperature;BME280_humidity;BME280_pressure;Samples;Min_cycle;Max_cycle;Signal;HPM_P1;HPM_P2
2022/01/22 00:01:43;;;;;;;8.20;5.57;;;5.60;99.90;;;;;;4973160;28;20347;-55
2022/01/22 00:04:09;;;;;;;11.88;5.30;;;5.60;99.90;;;;;;4990294;28;20553;-56
2022/01/22 00:06:34;;;;;;;10.50;5.70;;;5.50;99.90;;;;;;4990709;28;20029;-55
2022/01/22 00:09:00;;;;;;;10.25;5.05;;;5.60;99.90;;;;;;4990406;28;20036;-53
2022/01/22 00:11:33;;;;;;;9.25;4.78;;;5.50;99.90;;;;;;4973059;28;20033;-53
2022/01/22 00:16:43;;;;;;;7.53;4.47;;;5.40;99.90;;;;;;4992123;28;20048;-54
2022/01/22 00:19:10;;;;;;;6.68;3.97;;;5.40;99.90;;;;;;4993025;28;20042;-52
2022/01/22 00:21:36;;;;;;;6.10;3.90;;;5.50;99.90;;;;;;4994519;28;20018;-55
2022/01/22 00:24:03;;;;;;;8.23;4.35;;;5.50;99.90;;;;;;4993923;28;20397;-51
2022/01/22 00:26:28;;;;;;;8.68;3.88;;;5.40;99.90;;;;;;4993260;28;20022;-54
2022/01/22 00:28:54;;;;;;;5.38;3.50;;;5.40;99.90;;;;;;4993244;28;20037;-52
2022/01/22 00:31:19;;;;;;;10.55;3.83;;;5.50;99.90;;;;;;4975097;28;20076;-55
2022/01/22 00:33:45;;;;;;;7.30;3.35;;;5.40;99.90;;;;;;4993100;28;20030;-54
2022/01/22 00:36:11;;;;;;;5.28;2.78;;;5.40;99.90;;;;;;4993530;28;20120;-51
2022/01/22 00:38:36;;;;;;;14.77;3.72;;;5.50;99.90;;;;;;4975207;28;20030;-50
2022/01/22 00:41:02;;;;;;;11.98;3.65;;;5.50;99.90;;;;;;4975271;28;20031;-54
2022/01/22 00:43:27;;;;;;;11.75;3.28;;;5.50;99.90;;;;;;4975357;28;20030;-52
2022/01/22 00:45:53;;;;;;;8.35;3.45;;;5.40;99.90;;;;;;4992746;28;20026;-56
2022/01/22 00:48:18;;;;;;;11.50;3.53;;;5.40;99.90;;;;;;4993034;28;20026;-55
2022/01/22 00:50:44;;;;;;;8.10;3.25;;;5.50;99.90;;;;;;4992291;28;20030;-55
2022/01/22 00:53:10;;;;;;;8.15;3.20;;;5.50;99.90;;;;;;4992343;28;20069;-52
2022/01/22 00:55:35;;;;;;;5.85;2.90;;;5.40;99.90;;;;;;4992701;28;20026;-50
2022/01/22 00:58:01;;;;;;;8.30;3.33;;;5.40;99.90;;;;;;4992722;28;20375;-50
2022/01/22 01:00:27;;;;;;;7.20;3.20;;;5.40;99.90;;;;;;4992772;28;20096;-52
2022/01/22 01:02:52;;;;;;;5.20;2.92;;;5.40;99.90;;;;;;4992213;28;20026;-54
2022/01/22 01:05:18;;;;;;;10.23;2.95;;;5.40;99.90;;;;;;4992595;28;20034;-51
2022/01/22 01:07:44;;;;;;;6.38;3.15;;;5.50;99.90;;;;;;4992786;28;20028;-52
2022/01/22 01:10:13;;;;;;;10.07;4.40;;;5.50;99.90;;;;;;4992376;28;20022;-50
2022/01/22 01:12:40;;;;;;;11.55;5.40;;;5.50;99.90;;;;;;4992619;28;20026;-51
2022/01/22 01:18:03;;;;;;;6.15;3.70;;;5.50;99.90;;;;;;4992422;28;20409;-51
2022/01/22 01:34:12;;;;;;;10.15;2.47;;;5.60;99.90;;;;;;4992195;28;20077;-51
2022/01/22 01:36:39;;;;;;;13.00;4.70;;;5.60;99.90;;;;;;4991968;28;20500;-55
2022/01/22 01:39:08;;;;;;;8.73;3.17;;;5.70;99.90;;;;;;4974356;28;20066;-51
2022/01/22 01:41:47;;;;;;;8.27;3.08;;;5.70;99.90;;;;;;4975272;28;20034;-53
2022/01/22 01:44:13;;;;;;;8.18;3.25;;;5.70;99.90;;;;;;5016360;23;20038;-52
2022/01/22 01:46:50;;;;;;;6.45;3.22;;;5.60;99.90;;;;;;5054315;28;20036;-53
2022/01/22 01:49:16;;;;;;;6.20;3.83;;;5.60;99.90;;;;;;5055386;28;20103;-49
2022/01/22 01:51:42;;;;;;;5.43;2.78;;;5.60;99.90;;;;;;5055456;28;20028;-54
2022/01/22 01:54:27;;;;;;;6.55;2.75;;;5.70;99.90;;;;;;5059431;28;20047;-54
2022/01/22 01:59:39;;;;;;;6.50;2.93;;;5.60;99.90;;;;;;5075437;28;20454;-53
2022/01/22 02:02:05;;;;;;;6.88;2.83;;;5.60;99.90;;;;;;5075269;28;20024;-50
2022/01/22 02:04:31;;;;;;;4.07;2.80;;;5.70;99.90;;;;;;5074762;28;20038;-46
2022/01/22 02:06:57;;;;;;;7.50;4.43;;;5.60;99.90;;;;;;5075233;28;20107;-53
2022/01/22 02:09:23;;;;;;;8.73;3.10;;;5.60;99.90;;;;;;5075079;28;20043;-55
2022/01/22 02:11:58;;;;;;;6.28;2.70;;;5.70;99.90;;;;;;5075223;28;20383;-54
2022/01/22 02:25:26;;;;;;;6.15;3.85;;;5.50;99.90;;;;;;5075109;28;20116;-54
2022/01/22 02:27:52;;;;;;;11.45;3.63;;;5.50;99.90;;;;;;5073446;28;20056;-52
2022/01/22 02:30:21;;;;;;;7.53;3.58;;;5.50;99.90;;;;;;5074650;28;20464;-50
2022/01/22 02:35:53;;;;;;;5.60;3.70;;;5.50;99.90;;;;;;5074539;28;20031;-46
2022/01/22 02:38:27;;;;;;;11.77;3.55;;;5.40;99.90;;;;;;5074743;28;20376;-55
2022/01/22 02:40:53;;;;;;;7.03;4.15;;;5.50;99.90;;;;;;5074528;28;20053;-56
2022/01/22 02:43:20;;;;;;;5.63;3.30;;;5.50;99.90;;;;;;5074346;28;20070;-55
2022/01/22 02:45:47;;;;;;;5.60;4.63;;;5.50;99.90;;;;;;5074355;28;20029;-49
2022/01/22 02:48:12;;;;;;;4.28;3.58;;;5.40;99.90;;;;;;5074654;28;20414;-55
2022/01/22 02:50:38;;;;;;;6.85;4.00;;;5.50;99.90;;;;;;5074197;28;20025;-55
2022/01/22 02:53:06;;;;;;;8.73;5.30;;;5.50;99.90;;;;;;5074223;28;20017;-54
2022/01/22 02:55:32;;;;;;;8.60;4.45;;;5.50;99.90;;;;;;5074087;28;20066;-46
2022/01/22 02:57:58;;;;;;;10.23;4.78;;;5.50;99.90;;;;;;5074244;28;20063;-54
2022/01/22 03:00:25;;;;;;;7.07;4.38;;;5.50;99.90;;;;;;5074922;28;20024;-55
2022/01/22 03:02:52;;;;;;;7.85;4.78;;;5.50;99.90;;;;;;5074553;28;20041;-54
2022/01/22 03:05:18;;;;;;;13.73;4.30;;;5.50;99.90;;;;;;5073913;28;20021;-51
2022/01/22 03:07:49;;;;;;;8.48;3.72;;;5.50;99.90;;;;;;5074025;28;20495;-47
2022/01/22 03:10:18;;;;;;;10.80;5.13;;;5.50;99.90;;;;;;5074005;28;20063;-56
2022/01/22 03:18:01;;;;;;;5.45;4.50;;;5.50;99.90;;;;;;5073856;28;20029;-54
2022/01/22 03:27:15;;;;;;;12.13;4.45;;;5.50;99.90;;;;;;5073686;28;20028;-53
2022/01/22 03:28:52;;;;;;;8.63;4.78;;;5.50;99.90;;;;;;5073998;28;20031;-52
2022/01/22 03:31:18;;;;;;;11.52;4.32;;;5.50;99.90;;;;;;5073597;28;20025;-56
2022/01/22 03:33:43;;;;;;;11.15;4.65;;;5.50;99.90;;;;;;5073389;28;20498;-53
2022/01/22 03:36:11;;;;;;;10.68;6.72;;;5.40;99.90;;;;;;5073851;28;20100;-53
2022/01/22 03:38:36;;;;;;;9.18;4.38;;;5.40;99.90;;;;;;5073515;28;20116;-53
2022/01/22 03:41:02;;;;;;;9.35;4.35;;;5.50;99.90;;;;;;5073550;28;20052;-56
2022/01/22 03:43:28;;;;;;;12.10;4.72;;;5.50;99.90;;;;;;5073459;28;20100;-47
2022/01/22 03:45:53;;;;;;;7.10;5.25;;;5.50;99.90;;;;;;5073434;28;20038;-54
2022/01/22 03:48:19;;;;;;;13.35;5.03;;;5.50;99.90;;;;;;5073566;28;20025;-54
2022/01/22 03:50:44;;;;;;;4.47;4.07;;;5.60;99.90;;;;;;5073636;28;20032;-58
2022/01/22 03:53:10;;;;;;;10.35;5.63;;;5.60;99.90;;;;;;5073367;28;20391;-46
2022/01/22 03:55:52;;;;;;;9.55;5.38;;;5.50;99.90;;;;;;5073259;28;20418;-46
2022/01/22 03:58:18;;;;;;;9.73;5.38;;;5.50;99.90;;;;;;5073561;28;20025;-57
2022/01/22 04:00:43;;;;;;;9.20;5.25;;;5.60;99.90;;;;;;5089049;28;20115;-55
2022/01/22 04:03:29;;;;;;;6.05;5.00;;;5.60;99.90;;;;;;5073286;28;20021;-53
2022/01/22 04:06:15;;;;;;;10.52;5.75;;;5.70;99.90;;;;;;5073246;28;20082;-55
2022/01/22 04:08:40;;;;;;;12.68;4.43;;;5.70;99.90;;;;;;5074690;28;20411;-54
2022/01/22 04:11:10;;;;;;;6.38;4.63;;;5.60;99.90;;;;;;5074789;28;20029;-47
2022/01/22 04:13:36;;;;;;;10.55;4.32;;;5.60;99.90;;;;;;5073705;28;20077;-52
2022/01/22 04:16:02;;;;;;;6.78;4.22;;;5.60;99.90;;;;;;5071364;28;20028;-56
2022/01/22 04:26:52;;;;;;;8.50;4.35;;;5.60;99.90;;;;;;5072936;28;20028;-54
2022/01/22 04:29:18;;;;;;;11.07;4.75;;;5.50;99.90;;;;;;5072593;28;20028;-54
2022/01/22 04:31:44;;;;;;;5.60;4.40;;;5.60;99.90;;;;;;5072468;28;20017;-54
2022/01/22 04:34:09;;;;;;;10.15;5.28;;;5.60;99.90;;;;;;5072136;28;20111;-53
2022/01/22 04:36:35;;;;;;;5.07;4.28;;;5.60;99.90;;;;;;5072747;28;20483;-55
2022/01/22 04:39:00;;;;;;;10.35;5.13;;;5.60;99.90;;;;;;5073056;28;20450;-47
2022/01/22 04:41:26;;;;;;;6.60;3.90;;;5.60;99.90;;;;;;5073795;28;20029;-54
2022/01/22 04:43:58;;;;;;;5.75;4.35;;;5.60;99.90;;;;;;5072723;28;20027;-55
2022/01/22 04:46:36;;;;;;;7.43;4.30;;;5.70;99.90;;;;;;5088273;28;20384;-55
2022/01/22 04:49:12;;;;;;;6.93;3.90;;;5.60;99.90;;;;;;5072493;28;20161;-58
2022/01/22 04:57:06;;;;;;;4.95;4.13;;;5.70;99.90;;;;;;5073152;28;20063;-51
2022/01/22 04:59:32;;;;;;;8.93;4.55;;;5.60;99.90;;;;;;5072147;28;20479;-56
2022/01/22 05:01:57;;;;;;;7.88;4.30;;;5.60;99.90;;;;;;5087946;28;20112;-56
2022/01/22 05:04:23;;;;;;;8.02;5.03;;;5.60;99.90;;;;;;5071137;28;20028;-57
2022/01/22 05:06:49;;;;;;;4.15;3.80;;;5.60;99.90;;;;;;5073307;28;20071;-57
2022/01/22 05:09:14;;;;;;;9.57;4.32;;;5.60;99.90;;;;;;5073078;28;20445;-55
2022/01/22 05:11:40;;;;;;;5.97;3.55;;;5.60;99.90;;;;;;5087516;28;20376;-55
2022/01/22 05:14:05;;;;;;;8.18;3.75;;;5.60;99.90;;;;;;5071953;28;20025;-54
2022/01/22 05:16:31;;;;;;;9.55;4.20;;;5.60;99.90;;;;;;5071470;28;20028;-53
2022/01/22 05:19:05;;;;;;;6.72;4.95;;;5.60;99.90;;;;;;5070989;28;20056;-46
2022/01/22 05:21:34;;;;;;;5.20;4.18;;;5.50;99.90;;;;;;5071883;28;20387;-53
2022/01/22 05:24:04;;;;;;;7.25;4.05;;;5.50;99.90;;;;;;5071490;28;20077;-56
2022/01/22 05:39:41;;;;;;;7.00;4.50;;;5.60;99.90;;;;;;5062182;28;20090;-47
2022/01/22 05:42:09;;;;;;;5.28;3.63;;;5.50;99.90;;;;;;5071768;28;20482;-54
2022/01/22 05:44:36;;;;;;;4.32;3.50;;;5.50;99.90;;;;;;5070975;28;20399;-53
2022/01/22 05:47:06;;;;;;;9.65;3.05;;;5.50;99.90;;;;;;5071827;28;20021;-55
2022/01/22 05:49:36;;;;;;;6.30;3.47;;;5.50;99.90;;;;;;5071377;28;20024;-54
2022/01/22 05:52:05;;;;;;;9.50;3.50;;;5.50;99.90;;;;;;5071454;28;20099;-52
2022/01/22 05:59:40;;;;;;;5.55;3.78;;;5.60;99.90;;;;;;5071335;28;20158;-54
2022/01/22 06:02:15;;;;;;;4.63;3.15;;;5.60;99.90;;;;;;5071693;28;20096;-53
2022/01/22 06:04:42;;;;;;;6.13;4.43;;;5.60;99.90;;;;;;5071024;28;20024;-49
2022/01/22 06:07:09;;;;;;;9.43;3.30;;;5.60;99.90;;;;;;5071235;28;20102;-54
2022/01/22 06:09:39;;;;;;;4.30;3.33;;;5.60;99.90;;;;;;5071104;28;20031;-52
2022/01/22 06:14:34;;;;;;;6.93;3.75;;;5.60;99.90;;;;;;5070786;28;20025;-54
2022/01/22 06:17:00;;;;;;;9.65;3.72;;;5.60;99.90;;;;;;5071168;28;20056;-57
2022/01/22 06:19:26;;;;;;;8.75;3.92;;;5.60;99.90;;;;;;5070950;28;20424;-55
2022/01/22 06:21:52;;;;;;;5.45;4.13;;;5.60;99.90;;;;;;5071108;28;20074;-55
2022/01/22 06:24:19;;;;;;;9.93;4.47;;;5.60;99.90;;;;;;5071105;28;20020;-53
2022/01/22 06:26:44;;;;;;;11.25;4.63;;;5.60;99.90;;;;;;5071036;28;20017;-45
2022/01/22 06:29:10;;;;;;;8.57;4.80;;;5.60;99.90;;;;;;5071700;28;20029;-51
2022/01/22 06:31:36;;;;;;;7.78;5.57;;;5.60;99.90;;;;;;5074809;28;20502;-52
2022/01/22 06:34:03;;;;;;;9.27;5.13;;;5.60;99.90;;;;;;5074244;28;20024;-54
2022/01/22 06:36:30;;;;;;;7.50;5.07;;;5.60;99.90;;;;;;5074536;28;20028;-52
2022/01/22 06:38:59;;;;;;;6.55;4.97;;;5.70;99.90;;;;;;5074450;28;20036;-47
2022/01/22 06:44:09;;;;;;;6.50;4.75;;;5.70;99.90;;;;;;5073917;28;20354;-50
2022/01/22 06:46:35;;;;;;;8.02;4.65;;;5.70;99.90;;;;;;5074316;28;20078;-54
2022/01/22 06:49:01;;;;;;;6.80;4.82;;;5.70;99.90;;;;;;5074280;28;20033;-54
2022/01/22 06:51:27;;;;;;;9.38;5.45;;;5.70;99.90;;;;;;5072788;28;20029;-47
2022/01/22 06:53:54;;;;;;;8.00;5.72;;;5.70;99.90;;;;;;5089408;28;20027;-53
2022/01/22 06:56:21;;;;;;;7.32;5.80;;;5.70;99.90;;;;;;5074081;28;20028;-51
2022/01/22 06:58:48;;;;;;;9.07;5.03;;;5.70;99.90;;;;;;5073911;28;20448;-53
2022/01/22 07:01:16;;;;;;;6.45;5.30;;;5.70;99.90;;;;;;5072557;28;20376;-51
2022/01/22 07:03:42;;;;;;;6.05;4.40;;;5.80;99.90;;;;;;5073781;28;20064;-49
2022/01/22 07:06:08;;;;;;;8.80;5.22;;;5.70;99.90;;;;;;5073833;28;20056;-50
2022/01/22 07:08:34;;;;;;;4.38;4.00;;;5.70;99.90;;;;;;5074067;28;20024;-53
2022/01/22 07:11:00;;;;;;;5.63;4.40;;;5.70;99.90;;;;;;5074034;28;20502;-51
2022/01/22 07:13:25;;;;;;;7.15;4.22;;;5.70;99.90;;;;;;5073862;28;20020;-53
2022/01/22 07:15:51;;;;;;;7.28;4.22;;;5.70;99.90;;;;;;5073698;28;20365;-53
2022/01/22 07:18:16;;;;;;;6.78;4.18;;;5.70;99.90;;;;;;5073830;28;20027;-53
2022/01/22 07:20:43;;;;;;;5.53;3.95;;;5.70;99.90;;;;;;5073708;28;20035;-49
2022/01/22 07:25:44;;;;;;;7.00;4.75;;;5.70;99.90;;;;;;5073605;28;20017;-51
2022/01/22 07:28:11;;;;;;;6.88;5.63;;;5.70;99.90;;;;;;5073321;28;20078;-52
2022/01/22 07:30:38;;;;;;;7.25;6.35;;;5.70;99.90;;;;;;5072061;28;20028;-52
2022/01/22 07:33:03;;;;;;;8.60;6.20;;;5.70;99.90;;;;;;5073092;28;20103;-54
2022/01/22 07:35:29;;;;;;;7.05;5.55;;;5.70;99.90;;;;;;5073422;28;20048;-53
2022/01/22 07:37:54;;;;;;;6.43;5.18;;;5.70;99.90;;;;;;5073225;28;20407;-52
2022/01/22 07:40:20;;;;;;;13.48;7.90;;;5.70;99.90;;;;;;5087999;28;20119;-56
2022/01/22 07:42:46;;;;;;;5.47;4.60;;;5.70;99.90;;;;;;5088215;28;20016;-49
2022/01/22 07:45:11;;;;;;;7.45;4.80;;;5.70;99.90;;;;;;5077939;23;20295;-55
2022/01/22 07:47:38;;;;;;;14.40;6.35;;;5.70;99.90;;;;;;5053248;28;20025;-55
2022/01/22 07:50:05;;;;;;;5.38;4.75;;;5.70;99.90;;;;;;5051714;28;20056;-56
2022/01/22 07:52:31;;;;;;;5.80;4.20;;;5.70;99.90;;;;;;5053031;28;20032;-53
2022/01/22 07:54:57;;;;;;;6.40;4.93;;;5.70;99.90;;;;;;5052522;28;20384;-55
2022/01/22 07:57:22;;;;;;;7.07;4.60;;;5.80;99.90;;;;;;5052803;28;20041;-56
2022/01/22 07:59:48;;;;;;;5.22;4.20;;;5.70;99.90;;;;;;5052711;28;20052;-51
2022/01/22 08:02:14;;;;;;;7.88;5.18;;;5.80;99.90;;;;;;5053140;28;20052;-53
2022/01/22 08:04:40;;;;;;;9.80;5.45;;;5.90;99.90;;;;;;5052678;28;20024;-53
2022/01/22 08:07:06;;;;;;;8.70;5.80;;;5.90;99.90;;;;;;5052824;28;20021;-55
2022/01/22 08:09:32;;;;;;;11.50;6.70;;;5.90;99.90;;;;;;5052658;28;20052;-55
2022/01/22 08:11:59;;;;;;;7.15;6.30;;;5.90;99.90;;;;;;5052582;28;20045;-57
2022/01/22 08:14:24;;;;;;;10.98;7.35;;;5.80;99.90;;;;;;5052534;28;20100;-50
2022/01/22 08:16:50;;;;;;;11.20;6.90;;;5.80;99.90;;;;;;5047077;28;20108;-51
2022/01/22 08:19:17;;;;;;;14.45;8.23;;;5.80;99.90;;;;;;5043529;28;20025;-50
2022/01/22 08:21:44;;;;;;;10.35;6.97;;;5.90;99.90;;;;;;5032621;28;20440;-54
2022/01/22 08:24:11;;;;;;;6.45;5.60;;;5.90;99.90;;;;;;5034378;28;20075;-52
2022/01/22 08:26:42;;;;;;;6.78;4.07;;;5.90;99.90;;;;;;5040281;28;20120;-53
2022/01/22 08:29:09;;;;;;;4.60;4.20;;;5.90;99.90;;;;;;5037245;28;20076;-55
2022/01/22 08:36:46;;;;;;;5.57;4.20;;;6.00;99.90;;;;;;5052358;28;20036;-52
2022/01/22 08:39:15;;;;;;;7.65;5.00;;;5.90;99.90;;;;;;5048178;28;20430;-50
2022/01/22 08:41:41;;;;;;;6.07;4.38;;;5.90;99.90;;;;;;5041825;28;20017;-50
2022/01/22 08:44:07;;;;;;;6.85;4.82;;;5.90;99.90;;;;;;5035814;28;20032;-50
2022/01/22 08:46:34;;;;;;;8.20;5.10;;;6.00;99.90;;;;;;5050487;28;20036;-50
2022/01/22 08:49:00;;;;;;;8.95;5.57;;;6.00;99.90;;;;;;5051918;28;20029;-52
2022/01/22 08:51:26;;;;;;;9.05;5.50;;;6.00;99.90;;;;;;5049868;28;20029;-51
2022/01/22 08:53:52;;;;;;;11.63;5.97;;;6.00;99.90;;;;;;5040317;28;20502;-52
2022/01/22 08:56:18;;;;;;;12.63;7.45;;;6.00;99.90;;;;;;5040094;28;20060;-53
2022/01/22 08:58:44;;;;;;;11.63;6.47;;;6.20;99.90;;;;;;5033209;28;20027;-52
2022/01/22 09:01:10;;;;;;;10.00;5.97;;;6.20;99.90;;;;;;5031796;28;20476;-52
2022/01/22 09:03:36;;;;;;;7.32;4.80;;;6.10;99.90;;;;;;5032164;28;20028;-48
2022/01/22 09:06:04;;;;;;;4.57;4.18;;;6.20;99.90;;;;;;5038679;28;20523;-47
2022/01/22 09:08:29;;;;;;;4.97;4.35;;;6.10;99.90;;;;;;5051830;28;20419;-49
2022/01/22 09:10:55;;;;;;;4.80;4.40;;;6.20;99.90;;;;;;5037525;28;20068;-49
2022/01/22 09:13:22;;;;;;;4.68;4.22;;;6.30;99.90;;;;;;5031721;28;20465;-50
2022/01/22 09:15:50;;;;;;;4.88;4.18;;;6.30;99.90;;;;;;5031825;28;20024;-49
2022/01/22 09:18:15;;;;;;;3.97;3.60;;;6.30;99.90;;;;;;5031402;28;20021;-51
2022/01/22 09:23:10;;;;;;;5.03;4.32;;;6.10;99.90;;;;;;5045513;28;20484;-45
2022/01/22 09:25:36;;;;;;;4.55;4.10;;;6.20;99.90;;;;;;5049253;28;20108;-49
2022/01/22 09:28:02;;;;;;;6.65;4.53;;;6.20;99.90;;;;;;5037489;28;20052;-47
2022/01/22 09:30:27;;;;;;;4.72;4.32;;;6.20;99.90;;;;;;5040594;28;20038;-47
2022/01/22 09:32:53;;;;;;;5.03;4.53;;;6.20;99.90;;;;;;5047049;28;20032;-45
2022/01/22 09:35:19;;;;;;;5.82;4.32;;;6.30;99.90;;;;;;5049169;28;20492;-45
2022/01/22 09:37:46;;;;;;;5.72;4.07;;;6.30;99.90;;;;;;5050709;28;20045;-47
2022/01/22 09:40:15;;;;;;;7.57;3.92;;;6.20;99.90;;;;;;5051015;28;20052;-51
2022/01/22 09:42:41;;;;;;;4.38;3.55;;;6.20;99.90;;;;;;5051303;28;20025;-55
2022/01/22 09:45:08;;;;;;;4.68;4.28;;;6.20;99.90;;;;;;5051076;28;20047;-49
2022/01/22 09:47:34;;;;;;;4.68;3.97;;;6.20;99.90;;;;;;5049657;28;20032;-46
2022/01/22 09:50:00;;;;;;;5.97;4.55;;;6.30;99.90;;;;;;5051175;28;20468;-46
2022/01/22 09:52:26;;;;;;;6.43;4.45;;;6.30;99.90;;;;;;5051217;28;20037;-48
2022/01/22 09:54:52;;;;;;;4.82;4.43;;;6.40;99.90;;;;;;5049694;28;20438;-47
2022/01/22 09:57:17;;;;;;;5.60;5.10;;;6.40;99.90;;;;;;5049956;28;20112;-48
2022/01/22 09:59:43;;;;;;;5.85;5.20;;;6.40;99.90;;;;;;5051449;28;20117;-47
2022/01/22 10:02:15;;;;;;;5.53;5.03;;;6.40;99.90;;;;;;5049784;28;20060;-50
2022/01/22 10:04:45;;;;;;;6.00;5.40;;;6.40;99.90;;;;;;5052420;28;20116;-51
2022/01/22 10:07:22;;;;;;;6.55;5.85;;;6.50;99.90;;;;;;5053668;28;20064;-48
2022/01/22 10:09:58;;;;;;;16.48;10.48;;;6.60;99.90;;;;;;5054908;28;20029;-48
2022/01/22 10:12:26;;;;;;;6.47;5.85;;;6.70;99.90;;;;;;5055027;28;20031;-50
2022/01/22 10:15:08;;;;;;;5.40;5.00;;;6.50;99.90;;;;;;5054789;28;20040;-48
2022/01/22 10:17:43;;;;;;;6.18;4.60;;;6.60;99.90;;;;;;5054679;28;20427;-50
2022/01/22 10:20:32;;;;;;;5.18;4.68;;;6.60;99.90;;;;;;5054652;28;20029;-51
2022/01/22 10:23:00;;;;;;;7.05;4.78;;;6.60;99.90;;;;;;5054490;28;20103;-47
2022/01/22 10:25:32;;;;;;;5.10;4.60;;;6.80;99.90;;;;;;5054712;28;20104;-49
2022/01/22 10:28:06;;;;;;;5.68;4.45;;;6.80;99.90;;;;;;5054647;28;20027;-46
2022/01/22 10:30:41;;;;;;;4.80;4.40;;;6.70;99.90;;;;;;5054778;28;20100;-48
2022/01/22 10:33:21;;;;;;;;;;;6.80;99.90;;;;;;5053659;28;20053;-49
2022/01/22 10:35:47;;;;;;;5.47;4.97;;;6.80;99.90;;;;;;5053415;28;19909;-51
2022/01/22 10:38:13;;;;;;;5.53;4.97;;;6.80;99.90;;;;;;5054753;28;20031;-48
2022/01/22 10:40:41;;;;;;;5.78;5.18;;;6.80;99.90;;;;;;5055022;28;20150;-49
2022/01/22 10:43:32;;;;;;;5.47;4.97;;;6.80;99.90;;;;;;5054322;28;20461;-51
2022/01/22 10:46:11;;;;;;;6.72;5.65;;;6.80;99.90;;;;;;5054230;28;20052;-49
2022/01/22 10:48:39;;;;;;;5.15;4.65;;;6.90;99.90;;;;;;5054149;28;20551;-45
2022/01/22 10:51:10;;;;;;;6.07;5.47;;;6.90;99.90;;;;;;5053907;28;20022;-48
2022/01/22 10:53:59;;;;;;;8.18;5.57;;;6.90;99.90;;;;;;5052271;28;20033;-50
2022/01/22 10:56:29;;;;;;;9.23;6.10;;;6.90;99.90;;;;;;5052529;28;20091;-48
2022/01/22 10:59:00;;;;;;;9.07;6.45;;;6.90;99.90;;;;;;5054067;28;20017;-50
2022/01/22 11:01:53;;;;;;;6.43;5.75;;;6.80;99.90;;;;;;5053862;28;20017;-49
2022/01/22 11:04:25;;;;;;;7.20;6.43;;;6.90;99.90;;;;;;5053711;28;20032;-50
2022/01/22 11:06:56;;;;;;;7.00;6.13;;;6.90;99.90;;;;;;5053818;28;20021;-53
2022/01/22 11:09:24;;;;;;;9.80;6.28;;;7.00;99.90;;;;;;5052298;28;20041;-53
2022/01/22 11:11:51;;;;;;;10.73;6.28;;;6.90;99.90;;;;;;5048858;28;20049;-49
2022/01/22 11:14:17;;;;;;;6.28;5.68;;;6.90;99.90;;;;;;5035567;28;20117;-53
2022/01/22 11:16:46;;;;;;;7.13;6.43;;;6.90;99.90;;;;;;5036074;28;20705;-53
2022/01/22 11:19:14;;;;;;;7.65;6.13;;;6.90;99.90;;;;;;5037750;28;20028;-53
2022/01/22 11:21:44;;;;;;;8.40;7.10;;;6.90;99.90;;;;;;5043555;28;20029;-53
2022/01/22 11:24:19;;;;;;;7.90;7.07;;;7.00;99.90;;;;;;5044006;28;20029;-49
2022/01/22 11:26:53;;;;;;;8.10;7.30;;;7.10;99.90;;;;;;5036025;28;20120;-49
2022/01/22 11:29:24;;;;;;;7.20;6.47;;;7.20;99.90;;;;;;5038717;28;20412;-48
2022/01/22 11:31:52;;;;;;;7.47;6.78;;;7.20;99.90;;;;;;5049250;28;20017;-47
2022/01/22 11:34:22;;;;;;;41.53;25.38;;;7.30;99.90;;;;;;5043793;28;20040;-46
2022/01/22 11:36:53;;;;;;;12.13;8.38;;;7.20;99.90;;;;;;5038987;28;20030;-50
2022/01/22 11:39:23;;;;;;;7.68;6.82;;;7.30;99.90;;;;;;5037716;28;20075;-53
2022/01/22 11:41:57;;;;;;;6.43;5.85;;;7.30;99.90;;;;;;5053061;28;20440;-51
2022/01/22 11:44:48;;;;;;;7.60;5.70;;;7.30;99.90;;;;;;5045042;28;20053;-53
2022/01/22 11:47:20;;;;;;;7.20;6.47;;;7.20;99.90;;;;;;5033140;28;20046;-50
2022/01/22 11:50:09;;;;;;;7.07;6.38;;;7.30;99.90;;;;;;5033148;28;20076;-52
2022/01/22 11:52:38;;;;;;;8.38;5.68;;;7.30;99.90;;;;;;5033075;28;20409;-52
2022/01/22 11:55:08;;;;;;;4.72;4.32;;;7.30;99.90;;;;;;5051501;28;20025;-52
2022/01/22 11:57:34;;;;;;;5.40;3.97;;;7.40;99.90;;;;;;5036455;28;20025;-48
2022/01/22 12:00:22;;;;;;;4.60;4.10;;;7.40;99.90;;;;;;5032580;28;20045;-53
2022/01/22 12:03:03;;;;;;;6.68;3.85;;;7.40;99.90;;;;;;5038713;28;20017;-49
2022/01/22 12:05:29;;;;;;;4.38;4.00;;;7.30;99.90;;;;;;5047783;28;20029;-52
2022/01/22 12:07:59;;;;;;;4.07;3.78;;;7.30;99.90;;;;;;5040470;28;20028;-49
2022/01/22 12:10:37;;;;;;;7.15;4.07;;;7.20;99.90;;;;;;5033709;28;20141;-52
2022/01/22 12:16:14;;;;;;;4.15;3.50;;;7.30;99.90;;;;;;5042474;28;20537;-54
2022/01/22 12:18:53;;;;;;;5.38;3.58;;;7.30;99.90;;;;;;5048438;28;20029;-50
2022/01/22 12:21:36;;;;;;;3.40;3.20;;;7.40;99.90;;;;;;5042579;28;20029;-54
2022/01/22 12:24:04;;;;;;;3.03;2.83;;;7.30;99.90;;;;;;5031976;28;20025;-46
2022/01/22 12:27:04;;;;;;;4.20;3.10;;;7.20;99.90;;;;;;5063308;28;20369;-48
2022/01/22 12:29:34;;;;;;;3.70;3.35;;;7.30;99.90;;;;;;5032561;28;20103;-46
2022/01/22 12:32:08;;;;;;;4.90;3.95;;;7.40;99.90;;;;;;5032018;28;20033;-46
2022/01/22 12:34:56;;;;;;;3.83;3.53;;;7.40;99.90;;;;;;5032376;28;20021;-49
2022/01/22 12:37:22;;;;;;;3.75;3.45;;;7.30;99.90;;;;;;5040780;28;20021;-48
2022/01/22 12:39:51;;;;;;;3.50;3.20;;;7.30;99.90;;;;;;5052218;28;20480;-47
2022/01/22 12:42:30;;;;;;;3.65;2.92;;;7.20;99.90;;;;;;5051948;28;20044;-50
2022/01/22 12:45:02;;;;;;;5.55;3.63;;;7.20;99.90;;;;;;5051993;28;20036;-48
2022/01/22 12:47:28;;;;;;;3.45;3.03;;;7.20;99.90;;;;;;5051367;28;20407;-56
2022/01/22 12:50:00;;;;;;;2.90;2.65;;;7.20;99.90;;;;;;5052121;28;20025;-52
2022/01/22 12:52:27;;;;;;;3.25;3.05;;;7.20;99.90;;;;;;5052018;28;20029;-55
2022/01/22 12:54:57;;;;;;;3.30;3.00;;;7.20;99.90;;;;;;5051789;28;20502;-54
2022/01/22 12:57:25;;;;;;;3.20;3.00;;;7.30;99.90;;;;;;5051953;28;20033;-56
2022/01/22 13:00:08;;;;;;;3.03;2.83;;;7.30;99.90;;;;;;5052094;28;20025;-56
2022/01/22 13:02:55;;;;;;;5.13;2.88;;;7.40;99.90;;;;;;5039355;28;20025;-53
2022/01/22 13:05:23;;;;;;;3.20;2.55;;;7.30;99.90;;;;;;5035366;28;20224;-53
2022/01/22 13:07:56;;;;;;;3.63;3.17;;;7.30;99.90;;;;;;5031960;28;20022;-52
2022/01/22 13:10:33;;;;;;;3.33;3.05;;;7.30;99.90;;;;;;5034317;28;20512;-48
2022/01/22 13:13:00;;;;;;;5.85;3.88;;;7.30;99.90;;;;;;5051470;28;20037;-52
2022/01/22 13:15:27;;;;;;;4.88;3.22;;;7.30;99.90;;;;;;5048555;28;20025;-48
2022/01/22 13:18:00;;;;;;;3.58;3.28;;;7.30;99.90;;;;;;5044501;28;20431;-50
2022/01/22 13:20:28;;;;;;;5.40;3.63;;;7.40;99.90;;;;;;5046972;28;20074;-48
2022/01/22 13:22:54;;;;;;;3.67;3.28;;;7.30;99.90;;;;;;5044500;28;20124;-51
2022/01/22 13:25:20;;;;;;;4.45;3.83;;;7.30;99.90;;;;;;5032689;28;20104;-50
2022/01/22 13:28:01;;;;;;;3.55;3.25;;;7.30;99.90;;;;;;5030381;28;20025;-51
2022/01/22 13:30:36;;;;;;;3.83;3.53;;;7.30;99.90;;;;;;5031438;28;20017;-55
2022/01/22 13:33:15;;;;;;;4.07;3.67;;;7.50;99.90;;;;;;5031311;28;20392;-50
2022/01/22 13:45:04;;;;;;;4.35;3.63;;;7.50;99.90;;;;;;5031224;28;20172;-50
2022/01/22 13:49:27;;;;;;;50.08;26.13;;;7.60;99.90;;;;;;5051748;28;20527;-48
2022/01/22 13:51:59;;;;;;;6.32;3.90;;;7.50;99.90;;;;;;5051815;28;20020;-48
2022/01/22 13:54:31;;;;;;;5.82;3.03;;;7.50;99.90;;;;;;5051477;28;20029;-50
2022/01/22 13:57:03;;;;;;;3.20;3.00;;;7.50;99.90;;;;;;5064555;28;20029;-48
2022/01/22 13:59:39;;;;;;;5.93;2.83;;;7.50;99.90;;;;;;5051703;28;20036;-51
2022/01/22 14:02:16;;;;;;;2.42;2.22;;;7.50;99.90;;;;;;5051217;28;20021;-52
2022/01/22 14:04:50;;;;;;;4.60;2.20;;;7.40;99.90;;;;;;5051466;28;20498;-49
2022/01/22 14:07:21;;;;;;;4.40;2.60;;;7.50;99.90;;;;;;5051220;28;20103;-48
2022/01/22 14:10:13;;;;;;;2.78;2.38;;;7.50;99.90;;;;;;5050145;28;20504;-48
2022/01/22 14:12:44;;;;;;;5.13;2.60;;;7.50;99.90;;;;;;5050706;28;20049;-49
2022/01/22 14:15:17;;;;;;;3.30;3.00;;;7.50;99.90;;;;;;5050702;28;20096;-50
2022/01/22 14:18:22;;;;;;;3.22;2.85;;;7.50;99.90;;;;;;5050972;28;20026;-48
2022/01/22 14:21:06;;;;;;;2.83;2.63;;;7.50;99.90;;;;;;5050728;28;20033;-49
2022/01/22 14:23:32;;;;;;;4.00;2.63;;;7.50;99.90;;;;;;5049281;28;20022;-50
2022/01/22 14:26:08;;;;;;;4.35;3.00;;;7.50;99.90;;;;;;5050383;28;20021;-45
2022/01/22 14:28:57;;;;;;;5.00;3.13;;;7.50;99.90;;;;;;5050770;28;20033;-50
2022/01/22 14:31:28;;;;;;;4.38;3.00;;;7.40;99.90;;;;;;5050745;28;20401;-50
2022/01/22 14:34:01;;;;;;;3.47;2.83;;;7.30;99.90;;;;;;5049100;28;20029;-51
2022/01/22 14:36:32;;;;;;;9.52;3.15;;;7.50;99.90;;;;;;5050450;28;20021;-52
2022/01/22 14:44:55;;;;;;;3.80;3.03;;;7.40;99.90;;;;;;5050611;28;20036;-44
2022/01/22 14:47:23;;;;;;;4.40;3.35;;;7.40;99.90;;;;;;5050405;28;20032;-48
2022/01/22 14:50:02;;;;;;;3.75;3.38;;;7.40;99.90;;;;;;5050794;28;20117;-47
2022/01/22 14:52:28;;;;;;;8.65;3.33;;;7.50;99.90;;;;;;5054206;28;20506;-50
2022/01/22 14:54:56;;;;;;;6.25;4.05;;;7.50;99.90;;;;;;5053847;28;20115;-53
2022/01/22 14:57:28;;;;;;;4.07;3.63;;;7.50;99.90;;;;;;5054077;28;20025;-46
2022/01/22 14:59:54;;;;;;;3.95;3.13;;;7.50;99.90;;;;;;5054589;28;20036;-46
2022/01/22 15:02:20;;;;;;;6.07;3.90;;;7.50;99.90;;;;;;5053958;28;20021;-47